KMGM/MGM METAR and TAF weather

Enter ICAO airport designator
Station Type Date Time Source
KMGM METAR 2023/01/30 11:53 UTC NOAA

KMGM 301153Z AUTO 06006KT 10SM OVC004 15/14 A3011 RMK AO2 RAE49 SLP195 P0002 60047 70160 T01500139 10156 20150 51009 $


Station Type Date Time Source
KMGM Decoded METAR 2023/01/30 11:53 UTC NOAA

MONTGOMERY DANNELLY FIELD, AL, United States (KMGM) 32-18N 86-24W 63M
Jan 30, 2023 - 06:53 AM EST / 2023.01.30 1153 UTC
Wind: from the ENE (060 degrees) at 7 MPH (6 KT):0
Visibility: 10 mile(s):0
Sky conditions: overcast
Precipitation last hour: 0.02 inches
Temperature: 59.0 F (15.0 C)
Dew Point: 57.0 F (13.9 C)
Relative Humidity: 93%
Pressure (altimeter): 30.11 in. Hg (1019 hPa)
Pressure tendency: 0.03 inches (0.9 hPa) higher than three hours ago
ob: KMGM 301153Z AUTO 06006KT 10SM OVC004 15/14 A3011 RMK AO2 RAE49 SLP195 P0002 60047 70160 T01500139 10156 20150 51009
cycle: 12

Station Type Date Time Source
KMGM TAF 2023/01/30 12:54 UTC NOAA

TAF KMGM 301140Z 3012/3112 VRB03KT 6SM -SHRA BR OVC005
FM301400 VRB03KT 3SM BR OVC004
FM302100 VRB04KT P6SM OVC006
FM310000 VRB03KT P6SM OVC016
FM310100 VRB03KT P6SM OVC006

Example: see airport list